logo
Rechercher aéroport 
image banner adimage banner adimage banner ad
image banner ad

42CA - John F Kennedy Memorial Hospital

Situé à Indio, United States

ICAO - 42CA, IATA -

Données fournies par Airmate  

Information générale

Coordonnées: N33°42'21" W116°14'12"
Élévation : feet MSL.
Variation magnétique : 13° East
Voir autres Aéroports à California

Données opérationnelles

Special qualification required
Heure actuelle UTC:
Heure actuelle locale:
Météo à : KTRM - Jacqueline Cochran Rgnl ( 11 km )
METAR: KTRM 281252Z AUTO 08005KT 10SM CLR 27/12 A2982 RMK AO2 SLP102 T02720122
TAF: KTRM 281314Z 2813/2912 VRB03KT P6SM SCT120 FM281900 14011KT P6SM SCT100 BKN150 FM290100 VRB05KT P6SM SCT150
Voir NOTAMs / SUP AIP / TFR affectant cet aéroport [VIEW]
Fréquences de communication: [VIEW]

Pistes:

Coordonnées de l'aéroport

Adresse: Indio United States

Vue satellite de 42CA